sensor_id;sensor_type;location;lat;lon;timestamp;P1;durP1;ratioP1;P2;durP2;ratioP2
56893;SDS011;43392;50.078;13.704;2023-02-03T00:00:37;10.88;;;3.65;;
56893;SDS011;43392;50.078;13.704;2023-02-03T00:03:04;12.70;;;4.10;;
56893;SDS011;43392;50.078;13.704;2023-02-03T00:05:33;12.77;;;4.57;;
56893;SDS011;43392;50.078;13.704;2023-02-03T00:08:01;10.38;;;4.13;;
56893;SDS011;43392;50.078;13.704;2023-02-03T00:10:29;12.73;;;4.47;;
56893;SDS011;43392;50.078;13.704;2023-02-03T00:12:55;11.35;;;4.53;;
56893;SDS011;43392;50.078;13.704;2023-02-03T00:15:22;10.80;;;4.97;;
56893;SDS011;43392;50.078;13.704;2023-02-03T00:17:49;10.55;;;4.40;;
56893;SDS011;43392;50.078;13.704;2023-02-03T00:20:16;11.43;;;5.03;;
56893;SDS011;43392;50.078;13.704;2023-02-03T00:22:44;11.02;;;4.32;;
56893;SDS011;43392;50.078;13.704;2023-02-03T00:25:10;9.32;;;3.97;;
56893;SDS011;43392;50.078;13.704;2023-02-03T00:27:37;11.98;;;4.70;;
56893;SDS011;43392;50.078;13.704;2023-02-03T00:30:04;11.15;;;4.95;;
56893;SDS011;43392;50.078;13.704;2023-02-03T00:32:31;12.50;;;4.28;;
56893;SDS011;43392;50.078;13.704;2023-02-03T00:34:57;11.48;;;5.18;;
56893;SDS011;43392;50.078;13.704;2023-02-03T00:37:24;13.73;;;5.78;;
56893;SDS011;43392;50.078;13.704;2023-02-03T00:39:52;14.88;;;5.72;;
56893;SDS011;43392;50.078;13.704;2023-02-03T00:42:18;13.77;;;5.13;;
56893;SDS011;43392;50.078;13.704;2023-02-03T00:44:45;12.13;;;5.15;;
56893;SDS011;43392;50.078;13.704;2023-02-03T00:47:12;16.27;;;6.10;;
56893;SDS011;43392;50.078;13.704;2023-02-03T00:49:38;12.48;;;5.50;;
56893;SDS011;43392;50.078;13.704;2023-02-03T00:52:05;19.60;;;6.90;;
56893;SDS011;43392;50.078;13.704;2023-02-03T00:54:31;21.30;;;8.32;;
56893;SDS011;43392;50.078;13.704;2023-02-03T00:56:59;10.63;;;5.00;;
56893;SDS011;43392;50.078;13.704;2023-02-03T00:59:26;15.23;;;5.28;;
56893;SDS011;43392;50.078;13.704;2023-02-03T01:01:52;12.23;;;4.97;;
56893;SDS011;43392;50.078;13.704;2023-02-03T01:04:19;14.43;;;5.28;;
56893;SDS011;43392;50.078;13.704;2023-02-03T01:06:45;11.20;;;4.90;;
56893;SDS011;43392;50.078;13.704;2023-02-03T01:09:12;13.95;;;5.70;;
56893;SDS011;43392;50.078;13.704;2023-02-03T01:11:39;16.42;;;6.20;;
56893;SDS011;43392;50.078;13.704;2023-02-03T01:14:06;15.65;;;5.63;;
56893;SDS011;43392;50.078;13.704;2023-02-03T01:16:33;13.88;;;5.60;;
56893;SDS011;43392;50.078;13.704;2023-02-03T01:19:02;14.55;;;5.93;;
56893;SDS011;43392;50.078;13.704;2023-02-03T01:21:29;9.52;;;4.63;;
56893;SDS011;43392;50.078;13.704;2023-02-03T01:23:57;12.43;;;5.88;;
56893;SDS011;43392;50.078;13.704;2023-02-03T01:26:24;11.07;;;4.82;;
56893;SDS011;43392;50.078;13.704;2023-02-03T01:28:51;10.27;;;4.53;;
56893;SDS011;43392;50.078;13.704;2023-02-03T01:31:20;12.48;;;5.10;;
56893;SDS011;43392;50.078;13.704;2023-02-03T01:33:49;11.18;;;5.03;;
56893;SDS011;43392;50.078;13.704;2023-02-03T01:36:18;9.63;;;4.50;;
56893;SDS011;43392;50.078;13.704;2023-02-03T01:38:46;8.98;;;3.90;;
56893;SDS011;43392;50.078;13.704;2023-02-03T01:41:13;9.77;;;3.67;;
56893;SDS011;43392;50.078;13.704;2023-02-03T01:43:42;7.68;;;3.20;;
56893;SDS011;43392;50.078;13.704;2023-02-03T01:46:17;5.13;;;2.70;;
56893;SDS011;43392;50.078;13.704;2023-02-03T01:48:53;5.03;;;2.55;;
56893;SDS011;43392;50.078;13.704;2023-02-03T01:53:50;7.47;;;3.30;;
56893;SDS011;43392;50.078;13.704;2023-02-03T01:56:19;5.90;;;3.25;;
56893;SDS011;43392;50.078;13.704;2023-02-03T01:58:47;6.97;;;3.40;;
56893;SDS011;43392;50.078;13.704;2023-02-03T02:01:15;6.93;;;3.50;;
56893;SDS011;43392;50.078;13.704;2023-02-03T02:03:44;7.32;;;4.28;;
56893;SDS011;43392;50.078;13.704;2023-02-03T02:06:15;6.35;;;3.60;;
56893;SDS011;43392;50.078;13.704;2023-02-03T02:08:43;9.68;;;3.88;;
56893;SDS011;43392;50.078;13.704;2023-02-03T02:11:12;8.45;;;4.25;;
56893;SDS011;43392;50.078;13.704;2023-02-03T02:13:39;8.32;;;4.35;;
56893;SDS011;43392;50.078;13.704;2023-02-03T02:16:08;7.90;;;4.43;;
56893;SDS011;43392;50.078;13.704;2023-02-03T02:18:48;8.00;;;4.05;;
56893;SDS011;43392;50.078;13.704;2023-02-03T02:24:23;8.27;;;4.03;;
56893;SDS011;43392;50.078;13.704;2023-02-03T02:27:17;7.53;;;3.70;;
56893;SDS011;43392;50.078;13.704;2023-02-03T02:30:09;8.30;;;4.07;;
56893;SDS011;43392;50.078;13.704;2023-02-03T02:33:04;7.60;;;3.90;;
56893;SDS011;43392;50.078;13.704;2023-02-03T02:35:43;7.38;;;3.85;;
56893;SDS011;43392;50.078;13.704;2023-02-03T02:38:15;4.38;;;2.30;;
56893;SDS011;43392;50.078;13.704;2023-02-03T02:40:52;6.90;;;3.55;;
56893;SDS011;43392;50.078;13.704;2023-02-03T02:43:25;6.50;;;3.58;;
56893;SDS011;43392;50.078;13.704;2023-02-03T02:45:55;6.00;;;2.92;;
56893;SDS011;43392;50.078;13.704;2023-02-03T02:48:28;8.00;;;3.88;;
56893;SDS011;43392;50.078;13.704;2023-02-03T02:51:01;5.78;;;2.20;;
56893;SDS011;43392;50.078;13.704;2023-02-03T02:53:31;6.82;;;3.05;;
56893;SDS011;43392;50.078;13.704;2023-02-03T02:56:02;5.80;;;3.03;;
56893;SDS011;43392;50.078;13.704;2023-02-03T02:58:33;4.32;;;2.30;;
56893;SDS011;43392;50.078;13.704;2023-02-03T03:01:01;3.85;;;2.15;;
56893;SDS011;43392;50.078;13.704;2023-02-03T03:03:29;4.07;;;2.10;;
56893;SDS011;43392;50.078;13.704;2023-02-03T03:05:56;4.38;;;2.42;;
56893;SDS011;43392;50.078;13.704;2023-02-03T03:10:58;3.85;;;1.90;;
56893;SDS011;43392;50.078;13.704;2023-02-03T03:13:28;3.60;;;2.17;;
56893;SDS011;43392;50.078;13.704;2023-02-03T03:15:57;4.13;;;2.10;;
56893;SDS011;43392;50.078;13.704;2023-02-03T03:18:27;2.87;;;1.83;;
56893;SDS011;43392;50.078;13.704;2023-02-03T03:21:00;3.40;;;2.10;;
56893;SDS011;43392;50.078;13.704;2023-02-03T03:23:31;2.83;;;1.80;;
56893;SDS011;43392;50.078;13.704;2023-02-03T03:26:03;2.95;;;1.80;;
56893;SDS011;43392;50.078;13.704;2023-02-03T03:28:37;4.60;;;2.15;;
56893;SDS011;43392;50.078;13.704;2023-02-03T03:31:10;3.67;;;2.28;;
56893;SDS011;43392;50.078;13.704;2023-02-03T03:33:38;3.28;;;2.10;;
56893;SDS011;43392;50.078;13.704;2023-02-03T03:36:08;4.82;;;2.45;;
56893;SDS011;43392;50.078;13.704;2023-02-03T03:38:44;4.00;;;2.20;;
56893;SDS011;43392;50.078;13.704;2023-02-03T03:41:19;3.63;;;2.40;;
56893;SDS011;43392;50.078;13.704;2023-02-03T03:43:51;3.58;;;2.20;;
56893;SDS011;43392;50.078;13.704;2023-02-03T03:46:23;4.10;;;2.28;;
56893;SDS011;43392;50.078;13.704;2023-02-03T03:48:54;4.30;;;2.50;;
56893;SDS011;43392;50.078;13.704;2023-02-03T03:51:25;4.68;;;2.50;;
56893;SDS011;43392;50.078;13.704;2023-02-03T03:56:23;5.15;;;2.50;;
56893;SDS011;43392;50.078;13.704;2023-02-03T03:58:53;7.38;;;4.05;;
56893;SDS011;43392;50.078;13.704;2023-02-03T04:01:20;10.75;;;5.47;;
56893;SDS011;43392;50.078;13.704;2023-02-03T04:03:49;9.70;;;4.60;;
56893;SDS011;43392;50.078;13.704;2023-02-03T04:06:22;11.85;;;5.10;;
56893;SDS011;43392;50.078;13.704;2023-02-03T04:08:49;6.95;;;3.95;;
56893;SDS011;43392;50.078;13.704;2023-02-03T04:11:16;7.38;;;4.10;;
56893;SDS011;43392;50.078;13.704;2023-02-03T04:13:56;6.55;;;3.70;;
56893;SDS011;43392;50.078;13.704;2023-02-03T04:16:23;9.02;;;4.05;;
56893;SDS011;43392;50.078;13.704;2023-02-03T04:18:49;6.90;;;3.88;;
56893;SDS011;43392;50.078;13.704;2023-02-03T04:21:16;7.38;;;3.38;;
56893;SDS011;43392;50.078;13.704;2023-02-03T04:23:44;6.07;;;3.08;;
56893;SDS011;43392;50.078;13.704;2023-02-03T04:26:10;9.43;;;3.42;;
56893;SDS011;43392;50.078;13.704;2023-02-03T04:28:37;8.80;;;4.35;;
56893;SDS011;43392;50.078;13.704;2023-02-03T04:31:03;11.90;;;5.50;;
56893;SDS011;43392;50.078;13.704;2023-02-03T04:33:30;11.40;;;5.13;;
56893;SDS011;43392;50.078;13.704;2023-02-03T04:35:56;5.57;;;2.70;;
56893;SDS011;43392;50.078;13.704;2023-02-03T04:38:23;3.67;;;1.70;;
56893;SDS011;43392;50.078;13.704;2023-02-03T04:40:51;3.15;;;1.40;;
56893;SDS011;43392;50.078;13.704;2023-02-03T04:43:17;2.55;;;1.13;;
56893;SDS011;43392;50.078;13.704;2023-02-03T04:45:44;1.98;;;0.95;;
56893;SDS011;43392;50.078;13.704;2023-02-03T04:48:10;1.00;;;0.80;;
56893;SDS011;43392;50.078;13.704;2023-02-03T04:50:37;1.30;;;0.90;;
56893;SDS011;43392;50.078;13.704;2023-02-03T04:53:04;2.17;;;1.13;;
56893;SDS011;43392;50.078;13.704;2023-02-03T04:55:30;3.35;;;1.25;;
56893;SDS011;43392;50.078;13.704;2023-02-03T04:57:58;7.35;;;2.00;;
56893;SDS011;43392;50.078;13.704;2023-02-03T05:00:26;5.82;;;2.10;;
56893;SDS011;43392;50.078;13.704;2023-02-03T05:02:53;5.15;;;2.00;;
56893;SDS011;43392;50.078;13.704;2023-02-03T05:05:20;5.07;;;2.22;;
56893;SDS011;43392;50.078;13.704;2023-02-03T05:07:47;6.32;;;2.80;;
56893;SDS011;43392;50.078;13.704;2023-02-03T05:10:13;7.18;;;2.55;;
56893;SDS011;43392;50.078;13.704;2023-02-03T05:12:40;7.43;;;3.42;;
56893;SDS011;43392;50.078;13.704;2023-02-03T05:15:09;5.00;;;2.60;;
56893;SDS011;43392;50.078;13.704;2023-02-03T05:17:36;4.68;;;2.47;;
56893;SDS011;43392;50.078;13.704;2023-02-03T05:20:04;5.13;;;2.75;;
56893;SDS011;43392;50.078;13.704;2023-02-03T05:22:31;7.85;;;3.40;;
56893;SDS011;43392;50.078;13.704;2023-02-03T05:24:59;5.80;;;3.17;;
56893;SDS011;43392;50.078;13.704;2023-02-03T05:27:26;6.57;;;3.75;;
56893;SDS011;43392;50.078;13.704;2023-02-03T05:29:52;5.53;;;3.17;;
56893;SDS011;43392;50.078;13.704;2023-02-03T05:32:20;6.38;;;3.53;;
56893;SDS011;43392;50.078;13.704;2023-02-03T05:34:47;6.20;;;2.90;;
56893;SDS011;43392;50.078;13.704;2023-02-03T05:37:14;6.97;;;3.60;;
56893;SDS011;43392;50.078;13.704;2023-02-03T05:39:40;8.55;;;3.50;;
56893;SDS011;43392;50.078;13.704;2023-02-03T05:42:07;6.63;;;3.30;;
56893;SDS011;43392;50.078;13.704;2023-02-03T05:44:32;7.60;;;3.47;;
56893;SDS011;43392;50.078;13.704;2023-02-03T05:46:59;9.02;;;3.90;;
56893;SDS011;43392;50.078;13.704;2023-02-03T05:49:27;10.63;;;4.00;;
56893;SDS011;43392;50.078;13.704;2023-02-03T05:51:54;6.93;;;3.72;;
56893;SDS011;43392;50.078;13.704;2023-02-03T05:54:21;6.60;;;3.50;;
56893;SDS011;43392;50.078;13.704;2023-02-03T05:56:47;8.35;;;3.92;;
56893;SDS011;43392;50.078;13.704;2023-02-03T05:59:14;6.40;;;3.72;;
56893;SDS011;43392;50.078;13.704;2023-02-03T06:01:41;7.03;;;3.63;;
56893;SDS011;43392;50.078;13.704;2023-02-03T06:04:07;6.78;;;3.40;;
56893;SDS011;43392;50.078;13.704;2023-02-03T06:06:35;6.53;;;2.95;;
56893;SDS011;43392;50.078;13.704;2023-02-03T06:09:03;7.80;;;3.22;;
56893;SDS011;43392;50.078;13.704;2023-02-03T06:11:32;6.28;;;3.38;;
56893;SDS011;43392;50.078;13.704;2023-02-03T06:14:00;6.90;;;3.50;;
56893;SDS011;43392;50.078;13.704;2023-02-03T06:16:27;8.15;;;3.50;;
56893;SDS011;43392;50.078;13.704;2023-02-03T06:18:55;5.05;;;2.75;;
56893;SDS011;43392;50.078;13.704;2023-02-03T06:21:23;7.47;;;3.20;;
56893;SDS011;43392;50.078;13.704;2023-02-03T06:23:51;7.30;;;3.72;;
56893;SDS011;43392;50.078;13.704;2023-02-03T06:26:18;7.15;;;3.55;;
56893;SDS011;43392;50.078;13.704;2023-02-03T06:28:45;6.70;;;3.28;;
56893;SDS011;43392;50.078;13.704;2023-02-03T06:31:11;5.80;;;3.25;;
56893;SDS011;43392;50.078;13.704;2023-02-03T06:33:38;6.80;;;3.30;;
56893;SDS011;43392;50.078;13.704;2023-02-03T06:36:05;7.25;;;3.58;;
56893;SDS011;43392;50.078;13.704;2023-02-03T06:38:32;7.90;;;3.60;;
56893;SDS011;43392;50.078;13.704;2023-02-03T06:40:59;7.93;;;3.88;;
56893;SDS011;43392;50.078;13.704;2023-02-03T06:43:26;7.15;;;4.20;;
56893;SDS011;43392;50.078;13.704;2023-02-03T06:45:53;8.57;;;4.93;;
56893;SDS011;43392;50.078;13.704;2023-02-03T06:48:19;7.28;;;3.95;;
56893;SDS011;43392;50.078;13.704;2023-02-03T06:50:46;7.57;;;3.90;;
56893;SDS011;43392;50.078;13.704;2023-02-03T06:53:12;8.75;;;4.25;;
56893;SDS011;43392;50.078;13.704;2023-02-03T06:55:39;7.43;;;4.00;;
56893;SDS011;43392;50.078;13.704;2023-02-03T06:58:07;8.25;;;4.32;;
56893;SDS011;43392;50.078;13.704;2023-02-03T07:00:33;8.48;;;4.68;;
56893;SDS011;43392;50.078;13.704;2023-02-03T07:03:00;9.13;;;5.35;;
56893;SDS011;43392;50.078;13.704;2023-02-03T07:05:27;9.38;;;4.70;;
56893;SDS011;43392;50.078;13.704;2023-02-03T07:07:53;7.78;;;3.72;;
56893;SDS011;43392;50.078;13.704;2023-02-03T07:10:20;7.68;;;3.95;;
56893;SDS011;43392;50.078;13.704;2023-02-03T07:12:47;7.95;;;4.70;;
56893;SDS011;43392;50.078;13.704;2023-02-03T07:15:16;7.72;;;4.00;;
56893;SDS011;43392;50.078;13.704;2023-02-03T07:17:43;7.13;;;3.45;;
56893;SDS011;43392;50.078;13.704;2023-02-03T07:20:12;9.52;;;3.30;;
56893;SDS011;43392;50.078;13.704;2023-02-03T07:22:39;6.45;;;3.15;;
56893;SDS011;43392;50.078;13.704;2023-02-03T07:25:07;6.00;;;2.78;;
56893;SDS011;43392;50.078;13.704;2023-02-03T07:27:34;4.68;;;2.72;;
56893;SDS011;43392;50.078;13.704;2023-02-03T07:30:01;7.80;;;3.00;;
56893;SDS011;43392;50.078;13.704;2023-02-03T07:32:30;5.68;;;2.85;;
56893;SDS011;43392;50.078;13.704;2023-02-03T07:34:56;8.85;;;3.10;;
56893;SDS011;43392;50.078;13.704;2023-02-03T07:37:25;8.20;;;4.07;;
56893;SDS011;43392;50.078;13.704;2023-02-03T07:39:51;5.57;;;2.70;;
56893;SDS011;43392;50.078;13.704;2023-02-03T07:42:18;18.38;;;7.80;;
56893;SDS011;43392;50.078;13.704;2023-02-03T07:44:44;15.15;;;5.57;;
56893;SDS011;43392;50.078;13.704;2023-02-03T07:47:11;36.28;;;15.55;;
56893;SDS011;43392;50.078;13.704;2023-02-03T07:49:39;46.72;;;19.98;;
56893;SDS011;43392;50.078;13.704;2023-02-03T07:52:06;28.98;;;13.13;;
56893;SDS011;43392;50.078;13.704;2023-02-03T07:54:33;7.32;;;2.72;;
56893;SDS011;43392;50.078;13.704;2023-02-03T07:57:00;24.67;;;9.25;;
56893;SDS011;43392;50.078;13.704;2023-02-03T07:59:26;21.10;;;9.05;;
56893;SDS011;43392;50.078;13.704;2023-02-03T08:01:53;9.30;;;3.20;;
56893;SDS011;43392;50.078;13.704;2023-02-03T08:04:20;9.48;;;4.28;;
56893;SDS011;43392;50.078;13.704;2023-02-03T08:06:49;9.82;;;5.13;;
56893;SDS011;43392;50.078;13.704;2023-02-03T08:09:16;17.25;;;10.30;;
56893;SDS011;43392;50.078;13.704;2023-02-03T08:11:43;5.00;;;2.40;;
56893;SDS011;43392;50.078;13.704;2023-02-03T08:14:09;4.70;;;2.78;;
56893;SDS011;43392;50.078;13.704;2023-02-03T08:16:36;5.10;;;2.58;;
56893;SDS011;43392;50.078;13.704;2023-02-03T08:19:02;3.63;;;2.08;;
56893;SDS011;43392;50.078;13.704;2023-02-03T08:21:29;3.58;;;1.70;;
56893;SDS011;43392;50.078;13.704;2023-02-03T08:23:57;3.08;;;1.70;;
56893;SDS011;43392;50.078;13.704;2023-02-03T08:26:24;5.25;;;2.22;;
56893;SDS011;43392;50.078;13.704;2023-02-03T08:28:50;3.58;;;1.90;;
56893;SDS011;43392;50.078;13.704;2023-02-03T08:31:17;4.18;;;1.75;;
56893;SDS011;43392;50.078;13.704;2023-02-03T08:33:44;4.68;;;1.90;;
56893;SDS011;43392;50.078;13.704;2023-02-03T08:36:10;3.80;;;1.80;;
56893;SDS011;43392;50.078;13.704;2023-02-03T08:38:37;4.85;;;2.00;;
56893;SDS011;43392;50.078;13.704;2023-02-03T08:41:09;6.80;;;1.80;;
56893;SDS011;43392;50.078;13.704;2023-02-03T08:43:37;4.20;;;1.80;;
56893;SDS011;43392;50.078;13.704;2023-02-03T08:46:05;2.72;;;1.65;;
56893;SDS011;43392;50.078;13.704;2023-02-03T08:48:33;3.35;;;1.92;;
56893;SDS011;43392;50.078;13.704;2023-02-03T08:51:00;4.13;;;1.92;;
56893;SDS011;43392;50.078;13.704;2023-02-03T08:53:27;4.63;;;1.60;;
56893;SDS011;43392;50.078;13.704;2023-02-03T08:55:53;4.00;;;1.70;;
56893;SDS011;43392;50.078;13.704;2023-02-03T08:58:22;3.95;;;2.08;;
56893;SDS011;43392;50.078;13.704;2023-02-03T09:00:48;7.20;;;2.38;;
56893;SDS011;43392;50.078;13.704;2023-02-03T09:03:17;4.07;;;1.85;;
56893;SDS011;43392;50.078;13.704;2023-02-03T09:05:43;4.03;;;1.80;;
56893;SDS011;43392;50.078;13.704;2023-02-03T09:08:10;3.67;;;1.48;;
56893;SDS011;43392;50.078;13.704;2023-02-03T09:10:37;3.92;;;2.15;;
56893;SDS011;43392;50.078;13.704;2023-02-03T09:13:03;4.40;;;1.77;;
56893;SDS011;43392;50.078;13.704;2023-02-03T09:15:31;3.95;;;1.67;;
56893;SDS011;43392;50.078;13.704;2023-02-03T09:17:58;4.15;;;1.77;;
56893;SDS011;43392;50.078;13.704;2023-02-03T09:20:24;2.97;;;1.55;;
56893;SDS011;43392;50.078;13.704;2023-02-03T09:22:51;4.70;;;1.80;;
56893;SDS011;43392;50.078;13.704;2023-02-03T09:25:19;2.80;;;1.10;;
56893;SDS011;43392;50.078;13.704;2023-02-03T09:27:45;2.13;;;1.20;;
56893;SDS011;43392;50.078;13.704;2023-02-03T09:30:12;2.70;;;1.35;;
56893;SDS011;43392;50.078;13.704;2023-02-03T09:32:40;3.70;;;1.35;;
56893;SDS011;43392;50.078;13.704;2023-02-03T09:35:07;3.45;;;1.20;;
56893;SDS011;43392;50.078;13.704;2023-02-03T09:37:34;3.70;;;1.60;;
56893;SDS011;43392;50.078;13.704;2023-02-03T09:40:00;1.50;;;1.10;;
56893;SDS011;43392;50.078;13.704;2023-02-03T09:42:30;1.42;;;1.10;;
56893;SDS011;43392;50.078;13.704;2023-02-03T09:45:21;2.88;;;1.10;;
56893;SDS011;43392;50.078;13.704;2023-02-03T09:47:52;2.35;;;1.08;;
56893;SDS011;43392;50.078;13.704;2023-02-03T09:50:24;1.77;;;1.05;;
56893;SDS011;43392;50.078;13.704;2023-02-03T09:52:54;1.92;;;1.20;;
56893;SDS011;43392;50.078;13.704;2023-02-03T09:55:24;2.83;;;1.20;;
56893;SDS011;43392;50.078;13.704;2023-02-03T09:57:57;3.42;;;1.50;;
56893;SDS011;43392;50.078;13.704;2023-02-03T10:00:29;5.18;;;2.20;;
56893;SDS011;43392;50.078;13.704;2023-02-03T10:03:00;4.07;;;1.77;;
56893;SDS011;43392;50.078;13.704;2023-02-03T10:05:42;2.50;;;0.98;;
56893;SDS011;43392;50.078;13.704;2023-02-03T10:08:20;3.33;;;1.25;;
56893;SDS011;43392;50.078;13.704;2023-02-03T10:10:57;2.97;;;1.27;;
56893;SDS011;43392;50.078;13.704;2023-02-03T10:13:39;1.95;;;0.85;;
56893;SDS011;43392;50.078;13.704;2023-02-03T10:16:17;1.45;;;0.70;;
56893;SDS011;43392;50.078;13.704;2023-02-03T10:19:06;4.85;;;2.17;;
56893;SDS011;43392;50.078;13.704;2023-02-03T10:21:38;3.35;;;1.40;;
56893;SDS011;43392;50.078;13.704;2023-02-03T10:24:09;3.78;;;1.30;;
56893;SDS011;43392;50.078;13.704;2023-02-03T10:26:42;2.08;;;0.90;;
56893;SDS011;43392;50.078;13.704;2023-02-03T10:29:15;1.25;;;0.80;;
56893;SDS011;43392;50.078;13.704;2023-02-03T10:31:44;1.58;;;0.98;;
56893;SDS011;43392;50.078;13.704;2023-02-03T10:34:13;1.50;;;0.90;;
56893;SDS011;43392;50.078;13.704;2023-02-03T10:36:47;3.03;;;1.00;;
56893;SDS011;43392;50.078;13.704;2023-02-03T10:39:22;2.03;;;1.00;;
56893;SDS011;43392;50.078;13.704;2023-02-03T10:41:54;1.60;;;1.08;;
56893;SDS011;43392;50.078;13.704;2023-02-03T10:44:21;4.85;;;1.00;;
56893;SDS011;43392;50.078;13.704;2023-02-03T10:46:56;2.42;;;1.35;;
56893;SDS011;43392;50.078;13.704;2023-02-03T10:49:24;3.45;;;1.25;;
56893;SDS011;43392;50.078;13.704;2023-02-03T10:51:53;2.33;;;1.08;;
56893;SDS011;43392;50.078;13.704;2023-02-03T10:54:25;2.35;;;1.00;;
56893;SDS011;43392;50.078;13.704;2023-02-03T10:56:56;1.75;;;0.80;;
56893;SDS011;43392;50.078;13.704;2023-02-03T10:59:28;1.77;;;0.77;;
56893;SDS011;43392;50.078;13.704;2023-02-03T11:01:56;2.65;;;0.85;;
56893;SDS011;43392;50.078;13.704;2023-02-03T11:04:25;3.03;;;1.13;;
56893;SDS011;43392;50.078;13.704;2023-02-03T11:06:54;1.23;;;0.87;;
56893;SDS011;43392;50.078;13.704;2023-02-03T11:09:36;1.13;;;0.80;;
56893;SDS011;43392;50.078;13.704;2023-02-03T11:12:09;1.40;;;0.73;;
56893;SDS011;43392;50.078;13.704;2023-02-03T11:14:39;3.08;;;1.10;;
56893;SDS011;43392;50.078;13.704;2023-02-03T11:17:08;2.70;;;1.20;;
56893;SDS011;43392;50.078;13.704;2023-02-03T11:21:56;4.68;;;0.85;;
56893;SDS011;43392;50.078;13.704;2023-02-03T11:24:25;4.35;;;0.90;;
56893;SDS011;43392;50.078;13.704;2023-02-03T11:26:54;8.85;;;1.55;;
56893;SDS011;43392;50.078;13.704;2023-02-03T11:29:24;2.10;;;0.80;;
56893;SDS011;43392;50.078;13.704;2023-02-03T11:31:53;4.35;;;0.98;;
56893;SDS011;43392;50.078;13.704;2023-02-03T11:34:21;3.83;;;1.80;;
56893;SDS011;43392;50.078;13.704;2023-02-03T11:36:52;2.28;;;1.10;;
56893;SDS011;43392;50.078;13.704;2023-02-03T11:39:23;3.85;;;1.13;;
56893;SDS011;43392;50.078;13.704;2023-02-03T11:41:52;20.63;;;3.45;;
56893;SDS011;43392;50.078;13.704;2023-02-03T11:44:20;2.50;;;0.88;;
56893;SDS011;43392;50.078;13.704;2023-02-03T11:46:51;3.00;;;1.20;;
56893;SDS011;43392;50.078;13.704;2023-02-03T11:52:20;4.25;;;0.65;;
56893;SDS011;43392;50.078;13.704;2023-02-03T11:55:18;1.27;;;1.10;;
56893;SDS011;43392;50.078;13.704;2023-02-03T11:57:58;7.75;;;1.98;;
56893;SDS011;43392;50.078;13.704;2023-02-03T12:00:38;3.15;;;1.02;;
56893;SDS011;43392;50.078;13.704;2023-02-03T12:03:23;1.63;;;1.00;;
56893;SDS011;43392;50.078;13.704;2023-02-03T12:06:14;1.85;;;1.20;;
56893;SDS011;43392;50.078;13.704;2023-02-03T12:09:01;7.25;;;1.30;;
56893;SDS011;43392;50.078;13.704;2023-02-03T12:14:46;8.90;;;1.65;;
56893;SDS011;43392;50.078;13.704;2023-02-03T12:20:15;9.48;;;4.55;;
56893;SDS011;43392;50.078;13.704;2023-02-03T12:22:51;20.48;;;8.38;;
56893;SDS011;43392;50.078;13.704;2023-02-03T12:25:31;50.75;;;18.80;;
56893;SDS011;43392;50.078;13.704;2023-02-03T12:28:12;160.23;;;45.33;;
56893;SDS011;43392;50.078;13.704;2023-02-03T12:30:48;158.63;;;47.58;;
56893;SDS011;43392;50.078;13.704;2023-02-03T12:33:22;217.88;;;71.25;;
56893;SDS011;43392;50.078;13.704;2023-02-03T12:36:07;189.65;;;58.08;;
56893;SDS011;43392;50.078;13.704;2023-02-03T12:38:38;118.53;;;41.28;;
56893;SDS011;43392;50.078;13.704;2023-02-03T12:41:09;48.90;;;17.63;;
56893;SDS011;43392;50.078;13.704;2023-02-03T12:44:24;88.53;;;29.52;;
56893;SDS011;43392;50.078;13.704;2023-02-03T12:46:55;78.70;;;30.52;;
56893;SDS011;43392;50.078;13.704;2023-02-03T12:49:30;66.35;;;24.73;;
56893;SDS011;43392;50.078;13.704;2023-02-03T12:52:04;46.38;;;16.42;;
56893;SDS011;43392;50.078;13.704;2023-02-03T12:54:43;23.20;;;10.73;;
56893;SDS011;43392;50.078;13.704;2023-02-03T12:57:17;22.05;;;9.73;;
56893;SDS011;43392;50.078;13.704;2023-02-03T12:59:55;20.35;;;7.68;;
56893;SDS011;43392;50.078;13.704;2023-02-03T13:04:55;17.02;;;7.13;;
56893;SDS011;43392;50.078;13.704;2023-02-03T13:07:28;13.57;;;4.50;;
56893;SDS011;43392;50.078;13.704;2023-02-03T13:09:59;16.25;;;4.78;;
56893;SDS011;43392;50.078;13.704;2023-02-03T13:12:29;4.45;;;1.65;;
56893;SDS011;43392;50.078;13.704;2023-02-03T13:15:02;8.18;;;2.70;;
56893;SDS011;43392;50.078;13.704;2023-02-03T13:19:32;11.52;;;4.65;;
